sensor_id;sensor_type;location;lat;lon;timestamp;P1;durP1;ratioP1;P2;durP2;ratioP2
26042;SDS011;13818;52.156;5.382;2022-07-31T00:02:12;3.92;;;2.60;;
26042;SDS011;13818;52.156;5.382;2022-07-31T00:04:38;8.30;;;3.30;;
26042;SDS011;13818;52.156;5.382;2022-07-31T00:07:04;7.45;;;3.08;;
26042;SDS011;13818;52.156;5.382;2022-07-31T00:09:31;7.68;;;3.13;;
26042;SDS011;13818;52.156;5.382;2022-07-31T00:11:58;5.25;;;2.90;;
26042;SDS011;13818;52.156;5.382;2022-07-31T00:14:24;4.78;;;3.15;;
26042;SDS011;13818;52.156;5.382;2022-07-31T00:16:50;4.93;;;2.90;;
26042;SDS011;13818;52.156;5.382;2022-07-31T00:19:18;5.30;;;2.75;;
26042;SDS011;13818;52.156;5.382;2022-07-31T00:21:45;5.03;;;3.03;;
26042;SDS011;13818;52.156;5.382;2022-07-31T00:24:11;6.53;;;2.88;;
26042;SDS011;13818;52.156;5.382;2022-07-31T00:26:38;6.85;;;3.45;;
26042;SDS011;13818;52.156;5.382;2022-07-31T00:29:05;7.53;;;3.35;;
26042;SDS011;13818;52.156;5.382;2022-07-31T00:31:31;8.15;;;3.20;;
26042;SDS011;13818;52.156;5.382;2022-07-31T00:33:57;6.38;;;3.50;;
26042;SDS011;13818;52.156;5.382;2022-07-31T00:36:25;8.35;;;3.50;;
26042;SDS011;13818;52.156;5.382;2022-07-31T00:38:52;5.75;;;2.78;;
26042;SDS011;13818;52.156;5.382;2022-07-31T00:41:18;8.57;;;3.58;;
26042;SDS011;13818;52.156;5.382;2022-07-31T00:43:44;10.98;;;4.30;;
26042;SDS011;13818;52.156;5.382;2022-07-31T00:46:11;16.58;;;4.88;;
26042;SDS011;13818;52.156;5.382;2022-07-31T00:48:37;12.48;;;4.22;;
26042;SDS011;13818;52.156;5.382;2022-07-31T00:51:04;16.48;;;5.90;;
26042;SDS011;13818;52.156;5.382;2022-07-31T00:53:31;13.98;;;4.82;;
26042;SDS011;13818;52.156;5.382;2022-07-31T00:55:58;7.90;;;3.38;;
26042;SDS011;13818;52.156;5.382;2022-07-31T00:58:25;9.82;;;3.78;;
26042;SDS011;13818;52.156;5.382;2022-07-31T01:00:51;9.90;;;3.55;;
26042;SDS011;13818;52.156;5.382;2022-07-31T01:03:17;8.27;;;3.80;;
26042;SDS011;13818;52.156;5.382;2022-07-31T01:05:44;12.27;;;4.30;;
26042;SDS011;13818;52.156;5.382;2022-07-31T01:08:10;6.70;;;2.97;;
26042;SDS011;13818;52.156;5.382;2022-07-31T01:10:42;13.00;;;3.97;;
26042;SDS011;13818;52.156;5.382;2022-07-31T01:13:14;7.07;;;3.30;;
26042;SDS011;13818;52.156;5.382;2022-07-31T01:15:49;9.57;;;3.47;;
26042;SDS011;13818;52.156;5.382;2022-07-31T01:18:16;5.97;;;3.83;;
26042;SDS011;13818;52.156;5.382;2022-07-31T01:20:43;8.57;;;3.92;;
26042;SDS011;13818;52.156;5.382;2022-07-31T01:23:16;6.18;;;3.80;;
26042;SDS011;13818;52.156;5.382;2022-07-31T01:26:02;7.88;;;3.60;;
26042;SDS011;13818;52.156;5.382;2022-07-31T01:28:43;6.80;;;3.50;;
26042;SDS011;13818;52.156;5.382;2022-07-31T01:31:32;7.65;;;3.60;;
26042;SDS011;13818;52.156;5.382;2022-07-31T01:34:04;7.80;;;3.97;;
26042;SDS011;13818;52.156;5.382;2022-07-31T01:36:36;5.90;;;3.70;;
26042;SDS011;13818;52.156;5.382;2022-07-31T01:39:07;8.43;;;3.78;;
26042;SDS011;13818;52.156;5.382;2022-07-31T01:41:35;8.18;;;3.72;;
26042;SDS011;13818;52.156;5.382;2022-07-31T01:44:07;8.45;;;3.47;;
26042;SDS011;13818;52.156;5.382;2022-07-31T01:46:36;5.82;;;3.45;;
26042;SDS011;13818;52.156;5.382;2022-07-31T01:49:04;5.85;;;2.72;;
26042;SDS011;13818;52.156;5.382;2022-07-31T01:51:32;6.95;;;3.63;;
26042;SDS011;13818;52.156;5.382;2022-07-31T01:54:01;7.18;;;3.28;;
26042;SDS011;13818;52.156;5.382;2022-07-31T01:56:28;7.82;;;3.00;;
26042;SDS011;13818;52.156;5.382;2022-07-31T01:58:57;6.25;;;3.25;;
26042;SDS011;13818;52.156;5.382;2022-07-31T02:01:25;6.78;;;3.00;;
26042;SDS011;13818;52.156;5.382;2022-07-31T02:03:53;7.10;;;3.17;;
26042;SDS011;13818;52.156;5.382;2022-07-31T02:06:21;7.75;;;3.28;;
26042;SDS011;13818;52.156;5.382;2022-07-31T02:08:50;8.38;;;3.30;;
26042;SDS011;13818;52.156;5.382;2022-07-31T02:11:19;6.63;;;3.40;;
26042;SDS011;13818;52.156;5.382;2022-07-31T02:13:46;11.13;;;3.85;;
26042;SDS011;13818;52.156;5.382;2022-07-31T02:16:15;6.45;;;3.80;;
26042;SDS011;13818;52.156;5.382;2022-07-31T02:18:45;5.90;;;3.22;;
26042;SDS011;13818;52.156;5.382;2022-07-31T02:21:13;8.13;;;3.55;;
26042;SDS011;13818;52.156;5.382;2022-07-31T02:23:40;8.45;;;3.72;;
26042;SDS011;13818;52.156;5.382;2022-07-31T02:26:07;7.75;;;3.30;;
26042;SDS011;13818;52.156;5.382;2022-07-31T02:28:35;7.20;;;3.40;;
26042;SDS011;13818;52.156;5.382;2022-07-31T02:31:05;8.25;;;3.72;;
26042;SDS011;13818;52.156;5.382;2022-07-31T02:33:36;6.90;;;3.55;;
26042;SDS011;13818;52.156;5.382;2022-07-31T02:36:05;6.28;;;3.55;;
26042;SDS011;13818;52.156;5.382;2022-07-31T02:41:01;7.93;;;3.63;;
26042;SDS011;13818;52.156;5.382;2022-07-31T02:43:30;7.97;;;4.28;;
26042;SDS011;13818;52.156;5.382;2022-07-31T02:45:59;6.00;;;3.70;;
26042;SDS011;13818;52.156;5.382;2022-07-31T02:48:26;10.35;;;4.40;;
26042;SDS011;13818;52.156;5.382;2022-07-31T02:50:53;9.05;;;4.05;;
26042;SDS011;13818;52.156;5.382;2022-07-31T02:53:21;8.13;;;4.57;;
26042;SDS011;13818;52.156;5.382;2022-07-31T02:55:49;13.60;;;5.33;;
26042;SDS011;13818;52.156;5.382;2022-07-31T02:58:16;7.55;;;3.92;;
26042;SDS011;13818;52.156;5.382;2022-07-31T03:00:43;9.57;;;4.03;;
26042;SDS011;13818;52.156;5.382;2022-07-31T03:03:10;10.73;;;5.40;;
26042;SDS011;13818;52.156;5.382;2022-07-31T03:05:37;9.85;;;4.45;;
26042;SDS011;13818;52.156;5.382;2022-07-31T03:08:04;7.13;;;3.80;;
26042;SDS011;13818;52.156;5.382;2022-07-31T03:10:32;10.43;;;3.90;;
26042;SDS011;13818;52.156;5.382;2022-07-31T03:12:58;7.72;;;4.28;;
26042;SDS011;13818;52.156;5.382;2022-07-31T03:15:26;6.45;;;4.22;;
26042;SDS011;13818;52.156;5.382;2022-07-31T03:17:55;8.38;;;4.30;;
26042;SDS011;13818;52.156;5.382;2022-07-31T03:20:22;8.40;;;4.85;;
26042;SDS011;13818;52.156;5.382;2022-07-31T03:22:48;8.35;;;4.55;;
26042;SDS011;13818;52.156;5.382;2022-07-31T03:25:16;8.98;;;5.18;;
26042;SDS011;13818;52.156;5.382;2022-07-31T03:27:45;8.60;;;4.70;;
26042;SDS011;13818;52.156;5.382;2022-07-31T03:30:14;12.00;;;4.13;;
26042;SDS011;13818;52.156;5.382;2022-07-31T03:32:43;7.72;;;4.47;;
26042;SDS011;13818;52.156;5.382;2022-07-31T03:35:10;7.10;;;4.22;;
26042;SDS011;13818;52.156;5.382;2022-07-31T03:37:36;7.28;;;4.55;;
26042;SDS011;13818;52.156;5.382;2022-07-31T03:40:03;6.88;;;4.53;;
26042;SDS011;13818;52.156;5.382;2022-07-31T03:42:30;7.25;;;4.38;;
26042;SDS011;13818;52.156;5.382;2022-07-31T03:44:58;8.15;;;4.75;;
26042;SDS011;13818;52.156;5.382;2022-07-31T03:47:26;8.18;;;4.95;;
26042;SDS011;13818;52.156;5.382;2022-07-31T03:49:52;7.25;;;4.07;;
26042;SDS011;13818;52.156;5.382;2022-07-31T03:52:19;9.23;;;5.00;;
26042;SDS011;13818;52.156;5.382;2022-07-31T03:54:46;9.98;;;4.60;;
26042;SDS011;13818;52.156;5.382;2022-07-31T03:57:12;9.30;;;4.53;;
26042;SDS011;13818;52.156;5.382;2022-07-31T03:59:40;13.48;;;4.82;;
26042;SDS011;13818;52.156;5.382;2022-07-31T04:02:09;10.25;;;4.07;;
26042;SDS011;13818;52.156;5.382;2022-07-31T04:04:36;7.55;;;3.70;;
26042;SDS011;13818;52.156;5.382;2022-07-31T04:07:03;8.50;;;3.10;;
26042;SDS011;13818;52.156;5.382;2022-07-31T04:09:30;13.27;;;4.60;;
26042;SDS011;13818;52.156;5.382;2022-07-31T04:11:56;9.27;;;3.70;;
26042;SDS011;13818;52.156;5.382;2022-07-31T04:14:23;10.07;;;4.38;;
26042;SDS011;13818;52.156;5.382;2022-07-31T04:16:49;11.68;;;3.70;;
26042;SDS011;13818;52.156;5.382;2022-07-31T04:19:17;11.35;;;4.40;;
26042;SDS011;13818;52.156;5.382;2022-07-31T04:21:43;10.43;;;4.25;;
26042;SDS011;13818;52.156;5.382;2022-07-31T04:24:10;7.90;;;4.10;;
26042;SDS011;13818;52.156;5.382;2022-07-31T04:26:40;8.55;;;3.92;;
26042;SDS011;13818;52.156;5.382;2022-07-31T04:29:07;10.55;;;4.97;;
26042;SDS011;13818;52.156;5.382;2022-07-31T04:31:34;9.75;;;4.03;;
26042;SDS011;13818;52.156;5.382;2022-07-31T04:34:00;11.85;;;4.90;;
26042;SDS011;13818;52.156;5.382;2022-07-31T04:36:28;12.27;;;4.78;;
26042;SDS011;13818;52.156;5.382;2022-07-31T04:38:55;9.07;;;4.00;;
26042;SDS011;13818;52.156;5.382;2022-07-31T04:41:22;12.45;;;4.70;;
26042;SDS011;13818;52.156;5.382;2022-07-31T04:43:48;8.65;;;4.55;;
26042;SDS011;13818;52.156;5.382;2022-07-31T04:46:15;8.52;;;4.07;;
26042;SDS011;13818;52.156;5.382;2022-07-31T04:48:41;8.98;;;3.83;;
26042;SDS011;13818;52.156;5.382;2022-07-31T04:51:08;12.23;;;5.03;;
26042;SDS011;13818;52.156;5.382;2022-07-31T04:53:36;8.77;;;4.47;;
26042;SDS011;13818;52.156;5.382;2022-07-31T04:56:02;11.10;;;4.45;;
26042;SDS011;13818;52.156;5.382;2022-07-31T04:58:49;12.35;;;4.75;;
26042;SDS011;13818;52.156;5.382;2022-07-31T05:01:15;15.73;;;4.97;;
26042;SDS011;13818;52.156;5.382;2022-07-31T05:03:42;11.75;;;4.88;;
26042;SDS011;13818;52.156;5.382;2022-07-31T05:06:08;9.15;;;4.85;;
26042;SDS011;13818;52.156;5.382;2022-07-31T05:08:37;10.35;;;5.07;;
26042;SDS011;13818;52.156;5.382;2022-07-31T05:11:04;9.57;;;5.15;;
26042;SDS011;13818;52.156;5.382;2022-07-31T05:13:49;11.20;;;5.05;;
26042;SDS011;13818;52.156;5.382;2022-07-31T05:16:16;11.55;;;5.63;;
26042;SDS011;13818;52.156;5.382;2022-07-31T05:18:42;11.15;;;5.75;;
26042;SDS011;13818;52.156;5.382;2022-07-31T05:21:10;12.57;;;5.72;;
26042;SDS011;13818;52.156;5.382;2022-07-31T05:23:38;9.48;;;5.50;;
26042;SDS011;13818;52.156;5.382;2022-07-31T05:26:05;10.45;;;6.13;;
26042;SDS011;13818;52.156;5.382;2022-07-31T05:28:32;12.45;;;5.53;;
26042;SDS011;13818;52.156;5.382;2022-07-31T05:30:58;14.48;;;5.88;;
26042;SDS011;13818;52.156;5.382;2022-07-31T05:33:25;12.45;;;6.13;;
26042;SDS011;13818;52.156;5.382;2022-07-31T05:35:52;12.60;;;6.22;;
26042;SDS011;13818;52.156;5.382;2022-07-31T05:38:19;13.20;;;6.40;;
26042;SDS011;13818;52.156;5.382;2022-07-31T05:40:46;13.48;;;5.78;;
26042;SDS011;13818;52.156;5.382;2022-07-31T05:43:13;11.45;;;5.82;;
26042;SDS011;13818;52.156;5.382;2022-07-31T05:45:39;11.32;;;6.05;;
26042;SDS011;13818;52.156;5.382;2022-07-31T05:48:06;10.77;;;5.60;;
26042;SDS011;13818;52.156;5.382;2022-07-31T05:50:32;14.57;;;6.32;;
26042;SDS011;13818;52.156;5.382;2022-07-31T05:52:59;10.60;;;4.95;;
26042;SDS011;13818;52.156;5.382;2022-07-31T05:55:25;12.90;;;6.72;;
26042;SDS011;13818;52.156;5.382;2022-07-31T05:57:53;11.45;;;6.05;;
26042;SDS011;13818;52.156;5.382;2022-07-31T06:00:20;10.70;;;6.13;;
26042;SDS011;13818;52.156;5.382;2022-07-31T06:02:46;13.32;;;6.30;;
26042;SDS011;13818;52.156;5.382;2022-07-31T06:05:13;12.23;;;6.10;;
26042;SDS011;13818;52.156;5.382;2022-07-31T06:07:39;11.07;;;6.97;;
26042;SDS011;13818;52.156;5.382;2022-07-31T06:10:06;11.00;;;5.88;;
26042;SDS011;13818;52.156;5.382;2022-07-31T06:12:32;14.20;;;6.60;;
26042;SDS011;13818;52.156;5.382;2022-07-31T06:15:00;12.63;;;6.22;;
26042;SDS011;13818;52.156;5.382;2022-07-31T06:17:27;11.70;;;5.63;;
26042;SDS011;13818;52.156;5.382;2022-07-31T06:19:53;9.85;;;5.68;;
26042;SDS011;13818;52.156;5.382;2022-07-31T06:22:19;12.90;;;6.03;;
26042;SDS011;13818;52.156;5.382;2022-07-31T06:24:46;12.98;;;5.85;;
26042;SDS011;13818;52.156;5.382;2022-07-31T06:27:12;10.60;;;6.05;;
26042;SDS011;13818;52.156;5.382;2022-07-31T06:29:39;13.50;;;6.50;;
26042;SDS011;13818;52.156;5.382;2022-07-31T06:32:07;12.30;;;7.18;;
26042;SDS011;13818;52.156;5.382;2022-07-31T06:34:33;14.27;;;6.32;;
26042;SDS011;13818;52.156;5.382;2022-07-31T06:37:00;15.35;;;7.65;;
26042;SDS011;13818;52.156;5.382;2022-07-31T06:39:27;9.18;;;5.07;;
26042;SDS011;13818;52.156;5.382;2022-07-31T06:41:53;11.32;;;6.22;;
26042;SDS011;13818;52.156;5.382;2022-07-31T06:44:20;15.52;;;6.65;;
26042;SDS011;13818;52.156;5.382;2022-07-31T06:46:46;14.18;;;7.18;;
26042;SDS011;13818;52.156;5.382;2022-07-31T06:49:14;13.65;;;6.78;;
26042;SDS011;13818;52.156;5.382;2022-07-31T06:51:41;11.30;;;6.63;;
26042;SDS011;13818;52.156;5.382;2022-07-31T06:54:08;14.23;;;7.03;;
26042;SDS011;13818;52.156;5.382;2022-07-31T06:56:36;15.10;;;7.47;;
26042;SDS011;13818;52.156;5.382;2022-07-31T06:59:04;15.02;;;6.90;;
26042;SDS011;13818;52.156;5.382;2022-07-31T07:01:32;16.73;;;7.35;;
26042;SDS011;13818;52.156;5.382;2022-07-31T07:03:59;16.15;;;8.38;;
26042;SDS011;13818;52.156;5.382;2022-07-31T07:06:27;21.75;;;8.82;;
26042;SDS011;13818;52.156;5.382;2022-07-31T07:08:54;19.52;;;8.38;;
26042;SDS011;13818;52.156;5.382;2022-07-31T07:11:20;15.93;;;8.38;;
26042;SDS011;13818;52.156;5.382;2022-07-31T07:13:47;22.35;;;9.15;;
26042;SDS011;13818;52.156;5.382;2022-07-31T07:16:13;16.45;;;7.80;;
26042;SDS011;13818;52.156;5.382;2022-07-31T07:18:41;21.17;;;8.52;;
26042;SDS011;13818;52.156;5.382;2022-07-31T07:21:08;19.88;;;9.48;;
26042;SDS011;13818;52.156;5.382;2022-07-31T07:23:36;23.70;;;10.05;;
26042;SDS011;13818;52.156;5.382;2022-07-31T07:26:02;19.10;;;9.35;;
26042;SDS011;13818;52.156;5.382;2022-07-31T07:28:29;20.15;;;9.00;;
26042;SDS011;13818;52.156;5.382;2022-07-31T07:30:55;21.13;;;8.60;;
26042;SDS011;13818;52.156;5.382;2022-07-31T07:33:22;17.77;;;8.77;;
26042;SDS011;13818;52.156;5.382;2022-07-31T07:35:54;18.17;;;9.15;;
26042;SDS011;13818;52.156;5.382;2022-07-31T07:38:21;23.80;;;9.60;;
26042;SDS011;13818;52.156;5.382;2022-07-31T07:40:49;20.92;;;9.52;;
26042;SDS011;13818;52.156;5.382;2022-07-31T07:43:16;22.75;;;10.10;;
26042;SDS011;13818;52.156;5.382;2022-07-31T07:45:42;25.77;;;11.07;;
26042;SDS011;13818;52.156;5.382;2022-07-31T07:48:09;22.70;;;9.80;;
26042;SDS011;13818;52.156;5.382;2022-07-31T07:50:35;22.52;;;9.05;;
26042;SDS011;13818;52.156;5.382;2022-07-31T07:53:02;26.48;;;10.77;;
26042;SDS011;13818;52.156;5.382;2022-07-31T07:55:28;26.10;;;10.75;;
26042;SDS011;13818;52.156;5.382;2022-07-31T07:57:57;21.80;;;10.30;;
26042;SDS011;13818;52.156;5.382;2022-07-31T08:00:24;26.23;;;10.75;;
26042;SDS011;13818;52.156;5.382;2022-07-31T08:02:50;22.13;;;10.10;;
26042;SDS011;13818;52.156;5.382;2022-07-31T08:05:17;22.50;;;9.18;;
26042;SDS011;13818;52.156;5.382;2022-07-31T08:07:44;23.85;;;9.88;;
26042;SDS011;13818;52.156;5.382;2022-07-31T08:10:10;22.70;;;10.35;;
26042;SDS011;13818;52.156;5.382;2022-07-31T08:12:42;26.83;;;11.07;;
26042;SDS011;13818;52.156;5.382;2022-07-31T08:15:10;24.02;;;10.68;;
26042;SDS011;13818;52.156;5.382;2022-07-31T08:17:37;22.88;;;10.63;;
26042;SDS011;13818;52.156;5.382;2022-07-31T08:20:04;21.52;;;9.45;;
26042;SDS011;13818;52.156;5.382;2022-07-31T08:22:32;28.15;;;10.60;;
26042;SDS011;13818;52.156;5.382;2022-07-31T08:24:59;26.27;;;10.10;;
26042;SDS011;13818;52.156;5.382;2022-07-31T08:27:26;26.13;;;11.05;;
26042;SDS011;13818;52.156;5.382;2022-07-31T08:29:53;26.55;;;10.82;;
26042;SDS011;13818;52.156;5.382;2022-07-31T08:32:22;27.45;;;10.75;;
26042;SDS011;13818;52.156;5.382;2022-07-31T08:34:49;25.90;;;10.60;;
26042;SDS011;13818;52.156;5.382;2022-07-31T08:37:16;30.27;;;11.65;;
26042;SDS011;13818;52.156;5.382;2022-07-31T08:39:43;24.80;;;10.80;;
26042;SDS011;13818;52.156;5.382;2022-07-31T08:42:10;28.95;;;11.57;;
26042;SDS011;13818;52.156;5.382;2022-07-31T08:44:38;27.45;;;11.77;;
26042;SDS011;13818;52.156;5.382;2022-07-31T08:47:06;30.80;;;11.90;;
26042;SDS011;13818;52.156;5.382;2022-07-31T08:49:36;26.38;;;12.32;;
26042;SDS011;13818;52.156;5.382;2022-07-31T08:52:05;24.70;;;10.95;;
26042;SDS011;13818;52.156;5.382;2022-07-31T08:54:34;31.55;;;12.10;;
26042;SDS011;13818;52.156;5.382;2022-07-31T08:57:02;28.60;;;12.80;;
26042;SDS011;13818;52.156;5.382;2022-07-31T08:59:30;32.45;;;11.80;;
26042;SDS011;13818;52.156;5.382;2022-07-31T09:01:56;27.85;;;12.55;;
26042;SDS011;13818;52.156;5.382;2022-07-31T09:04:23;30.35;;;12.20;;
26042;SDS011;13818;52.156;5.382;2022-07-31T09:06:51;30.02;;;12.93;;
26042;SDS011;13818;52.156;5.382;2022-07-31T09:09:20;29.33;;;11.90;;
26042;SDS011;13818;52.156;5.382;2022-07-31T09:11:48;30.80;;;13.73;;
26042;SDS011;13818;52.156;5.382;2022-07-31T09:14:23;48.15;;;22.05;;
26042;SDS011;13818;52.156;5.382;2022-07-31T09:16:51;31.40;;;13.18;;
26042;SDS011;13818;52.156;5.382;2022-07-31T09:19:18;28.85;;;12.32;;
26042;SDS011;13818;52.156;5.382;2022-07-31T09:21:46;34.42;;;14.05;;
26042;SDS011;13818;52.156;5.382;2022-07-31T09:24:24;28.15;;;14.00;;
26042;SDS011;13818;52.156;5.382;2022-07-31T09:26:56;27.13;;;13.02;;
26042;SDS011;13818;52.156;5.382;2022-07-31T09:29:32;30.25;;;13.60;;
26042;SDS011;13818;52.156;5.382;2022-07-31T09:32:08;30.73;;;13.25;;
26042;SDS011;13818;52.156;5.382;2022-07-31T09:34:36;33.05;;;13.38;;
26042;SDS011;13818;52.156;5.382;2022-07-31T09:37:06;34.97;;;14.40;;
26042;SDS011;13818;52.156;5.382;2022-07-31T09:39:35;34.05;;;13.10;;
26042;SDS011;13818;52.156;5.382;2022-07-31T09:42:02;35.67;;;14.57;;
26042;SDS011;13818;52.156;5.382;2022-07-31T09:44:36;30.35;;;14.60;;
26042;SDS011;13818;52.156;5.382;2022-07-31T09:47:04;30.60;;;14.32;;
26042;SDS011;13818;52.156;5.382;2022-07-31T09:49:31;28.13;;;14.05;;
26042;SDS011;13818;52.156;5.382;2022-07-31T09:51:59;33.95;;;13.80;;
26042;SDS011;13818;52.156;5.382;2022-07-31T09:54:27;31.15;;;13.57;;
26042;SDS011;13818;52.156;5.382;2022-07-31T09:59:23;33.42;;;13.70;;
26042;SDS011;13818;52.156;5.382;2022-07-31T10:01:50;25.02;;;13.38;;
26042;SDS011;13818;52.156;5.382;2022-07-31T10:04:18;33.53;;;13.10;;
26042;SDS011;13818;52.156;5.382;2022-07-31T10:06:46;26.67;;;13.18;;
26042;SDS011;13818;52.156;5.382;2022-07-31T10:09:14;25.38;;;12.48;;
26042;SDS011;13818;52.156;5.382;2022-07-31T10:11:44;26.50;;;13.27;;
26042;SDS011;13818;52.156;5.382;2022-07-31T10:14:14;22.05;;;11.70;;
26042;SDS011;13818;52.156;5.382;2022-07-31T10:16:46;26.70;;;12.18;;
26042;SDS011;13818;52.156;5.382;2022-07-31T10:19:17;23.08;;;11.25;;
26042;SDS011;13818;52.156;5.382;2022-07-31T10:21:46;20.27;;;10.70;;
26042;SDS011;13818;52.156;5.382;2022-07-31T10:24:19;24.88;;;11.50;;
26042;SDS011;13818;52.156;5.382;2022-07-31T10:26:48;22.03;;;12.17;;
26042;SDS011;13818;52.156;5.382;2022-07-31T10:29:17;27.17;;;12.50;;
26042;SDS011;13818;52.156;5.382;2022-07-31T10:31:44;15.82;;;7.53;;
26042;SDS011;13818;52.156;5.382;2022-07-31T10:34:11;26.10;;;12.50;;
26042;SDS011;13818;52.156;5.382;2022-07-31T10:36:38;24.33;;;13.77;;
26042;SDS011;13818;52.156;5.382;2022-07-31T10:39:09;25.88;;;14.07;;
26042;SDS011;13818;52.156;5.382;2022-07-31T10:41:45;26.08;;;14.27;;
26042;SDS011;13818;52.156;5.382;2022-07-31T10:44:18;26.40;;;14.80;;
26042;SDS011;13818;52.156;5.382;2022-07-31T10:46:52;28.30;;;14.57;;
26042;SDS011;13818;52.156;5.382;2022-07-31T10:49:31;25.55;;;14.13;;
26042;SDS011;13818;52.156;5.382;2022-07-31T10:52:03;30.20;;;15.02;;
26042;SDS011;13818;52.156;5.382;2022-07-31T10:54:36;28.13;;;15.20;;
26042;SDS011;13818;52.156;5.382;2022-07-31T10:57:04;23.70;;;14.10;;
26042;SDS011;13818;52.156;5.382;2022-07-31T10:59:32;24.08;;;14.18;;
26042;SDS011;13818;52.156;5.382;2022-07-31T11:01:58;26.85;;;14.05;;
26042;SDS011;13818;52.156;5.382;2022-07-31T11:04:25;25.75;;;14.40;;
26042;SDS011;13818;52.156;5.382;2022-07-31T11:06:53;24.92;;;13.98;;
26042;SDS011;13818;52.156;5.382;2022-07-31T11:09:20;25.00;;;13.25;;
26042;SDS011;13818;52.156;5.382;2022-07-31T11:11:47;28.48;;;14.00;;
26042;SDS011;13818;52.156;5.382;2022-07-31T11:14:14;24.80;;;14.05;;
26042;SDS011;13818;52.156;5.382;2022-07-31T11:16:49;24.17;;;13.98;;
26042;SDS011;13818;52.156;5.382;2022-07-31T11:19:16;25.73;;;13.93;;
26042;SDS011;13818;52.156;5.382;2022-07-31T11:21:43;25.90;;;13.80;;
26042;SDS011;13818;52.156;5.382;2022-07-31T11:24:10;24.85;;;13.95;;
26042;SDS011;13818;52.156;5.382;2022-07-31T11:26:40;20.80;;;13.20;;
26042;SDS011;13818;52.156;5.382;2022-07-31T11:31:34;24.50;;;14.43;;
26042;SDS011;13818;52.156;5.382;2022-07-31T11:34:02;25.58;;;13.70;;
26042;SDS011;13818;52.156;5.382;2022-07-31T11:36:29;24.00;;;13.73;;
26042;SDS011;13818;52.156;5.382;2022-07-31T11:38:55;25.73;;;13.98;;
26042;SDS011;13818;52.156;5.382;2022-07-31T11:41:25;23.42;;;12.82;;
26042;SDS011;13818;52.156;5.382;2022-07-31T11:43:53;23.25;;;14.13;;
26042;SDS011;13818;52.156;5.382;2022-07-31T11:46:22;26.02;;;13.00;;
26042;SDS011;13818;52.156;5.382;2022-07-31T11:48:50;18.98;;;12.15;;
26042;SDS011;13818;52.156;5.382;2022-07-31T11:51:18;24.13;;;13.10;;
26042;SDS011;13818;52.156;5.382;2022-07-31T11:53:45;25.08;;;13.05;;
26042;SDS011;13818;52.156;5.382;2022-07-31T11:56:14;24.00;;;12.13;;
26042;SDS011;13818;52.156;5.382;2022-07-31T11:58:44;22.65;;;12.40;;
26042;SDS011;13818;52.156;5.382;2022-07-31T12:01:12;19.08;;;11.77;;
26042;SDS011;13818;52.156;5.382;2022-07-31T12:03:38;22.10;;;12.50;;
26042;SDS011;13818;52.156;5.382;2022-07-31T12:06:06;21.75;;;12.77;;
26042;SDS011;13818;52.156;5.382;2022-07-31T12:08:35;17.83;;;9.30;;
26042;SDS011;13818;52.156;5.382;2022-07-31T12:11:03;18.27;;;8.95;;
26042;SDS011;13818;52.156;5.382;2022-07-31T12:15:59;20.67;;;10.10;;
26042;SDS011;13818;52.156;5.382;2022-07-31T12:18:27;20.27;;;9.48;;
26042;SDS011;13818;52.156;5.382;2022-07-31T12:20:55;19.48;;;8.73;;
26042;SDS011;13818;52.156;5.382;2022-07-31T12:23:23;17.13;;;8.18;;
26042;SDS011;13818;52.156;5.382;2022-07-31T12:25:51;12.70;;;7.75;;
26042;SDS011;13818;52.156;5.382;2022-07-31T12:28:18;13.45;;;7.60;;
26042;SDS011;13818;52.156;5.382;2022-07-31T12:30:45;14.70;;;7.82;;
26042;SDS011;13818;52.156;5.382;2022-07-31T12:33:23;13.80;;;7.88;;
26042;SDS011;13818;52.156;5.382;2022-07-31T12:38:21;12.52;;;7.65;;
26042;SDS011;13818;52.156;5.382;2022-07-31T12:40:48;15.60;;;7.90;;
26042;SDS011;13818;52.156;5.382;2022-07-31T12:43:16;15.23;;;7.53;;
26042;SDS011;13818;52.156;5.382;2022-07-31T12:45:48;12.27;;;7.32;;
26042;SDS011;13818;52.156;5.382;2022-07-31T12:48:16;14.38;;;7.60;;
26042;SDS011;13818;52.156;5.382;2022-07-31T12:50:43;15.20;;;6.85;;
26042;SDS011;13818;52.156;5.382;2022-07-31T12:53:09;9.90;;;5.50;;
26042;SDS011;13818;52.156;5.382;2022-07-31T12:55:36;12.07;;;6.07;;
26042;SDS011;13818;52.156;5.382;2022-07-31T12:58:03;10.95;;;6.05;;
26042;SDS011;13818;52.156;5.382;2022-07-31T13:00:31;11.63;;;5.90;;
26042;SDS011;13818;52.156;5.382;2022-07-31T13:02:57;10.68;;;5.70;;
26042;SDS011;13818;52.156;5.382;2022-07-31T13:05:24;8.85;;;4.85;;
26042;SDS011;13818;52.156;5.382;2022-07-31T13:07:51;9.02;;;5.13;;
26042;SDS011;13818;52.156;5.382;2022-07-31T13:10:18;8.88;;;4.13;;
26042;SDS011;13818;52.156;5.382;2022-07-31T13:12:45;6.55;;;3.45;;
26042;SDS011;13818;52.156;5.382;2022-07-31T13:15:14;7.40;;;4.40;;
26042;SDS011;13818;52.156;5.382;2022-07-31T13:17:44;7.13;;;3.33;;
26042;SDS011;13818;52.156;5.382;2022-07-31T13:20:10;8.23;;;3.58;;
26042;SDS011;13818;52.156;5.382;2022-07-31T13:22:37;6.95;;;3.30;;
26042;SDS011;13818;52.156;5.382;2022-07-31T13:25:04;8.52;;;3.25;;
26042;SDS011;13818;52.156;5.382;2022-07-31T13:27:31;8.32;;;3.35;;
26042;SDS011;13818;52.156;5.382;2022-07-31T13:29:57;6.80;;;3.45;;
26042;SDS011;13818;52.156;5.382;2022-07-31T13:32:24;8.38;;;3.38;;
26042;SDS011;13818;52.156;5.382;2022-07-31T13:34:52;5.18;;;3.00;;
26042;SDS011;13818;52.156;5.382;2022-07-31T13:37:19;8.63;;;3.42;;
26042;SDS011;13818;52.156;5.382;2022-07-31T13:39:45;6.45;;;2.38;;
26042;SDS011;13818;52.156;5.382;2022-07-31T13:42:12;8.35;;;3.15;;
26042;SDS011;13818;52.156;5.382;2022-07-31T13:44:38;8.52;;;2.78;;
26042;SDS011;13818;52.156;5.382;2022-07-31T13:47:05;4.55;;;1.95;;
26042;SDS011;13818;52.156;5.382;2022-07-31T13:49:31;10.93;;;3.47;;
26042;SDS011;13818;52.156;5.382;2022-07-31T13:51:59;8.35;;;3.30;;
26042;SDS011;13818;52.156;5.382;2022-07-31T13:54:26;10.23;;;4.13;;
26042;SDS011;13818;52.156;5.382;2022-07-31T13:56:53;5.40;;;2.95;;
26042;SDS011;13818;52.156;5.382;2022-07-31T13:59:20;7.50;;;4.20;;
26042;SDS011;13818;52.156;5.382;2022-07-31T14:01:47;12.73;;;4.53;;
26042;SDS011;13818;52.156;5.382;2022-07-31T14:04:16;6.60;;;3.92;;
26042;SDS011;13818;52.156;5.382;2022-07-31T14:06:43;7.50;;;3.38;;
26042;SDS011;13818;52.156;5.382;2022-07-31T14:09:11;10.07;;;3.72;;
26042;SDS011;13818;52.156;5.382;2022-07-31T14:11:38;6.82;;;3.05;;
26042;SDS011;13818;52.156;5.382;2022-07-31T14:14:04;7.75;;;3.15;;
26042;SDS011;13818;52.156;5.382;2022-07-31T14:16:31;6.47;;;3.30;;
26042;SDS011;13818;52.156;5.382;2022-07-31T14:18:57;5.22;;;2.53;;
26042;SDS011;13818;52.156;5.382;2022-07-31T14:21:24;7.82;;;2.22;;
26042;SDS011;13818;52.156;5.382;2022-07-31T14:23:51;8.35;;;4.10;;
26042;SDS011;13818;52.156;5.382;2022-07-31T14:26:18;6.28;;;3.95;;
26042;SDS011;13818;52.156;5.382;2022-07-31T14:28:45;6.47;;;3.20;;
26042;SDS011;13818;52.156;5.382;2022-07-31T14:31:13;12.45;;;3.55;;
26042;SDS011;13818;52.156;5.382;2022-07-31T14:33:40;7.65;;;3.83;;
26042;SDS011;13818;52.156;5.382;2022-07-31T14:36:06;7.68;;;3.83;;
26042;SDS011;13818;52.156;5.382;2022-07-31T14:38:33;7.95;;;3.72;;
26042;SDS011;13818;52.156;5.382;2022-07-31T14:41:00;9.30;;;3.90;;
26042;SDS011;13818;52.156;5.382;2022-07-31T14:43:28;8.85;;;4.18;;
26042;SDS011;13818;52.156;5.382;2022-07-31T14:45:57;11.85;;;3.50;;
26042;SDS011;13818;52.156;5.382;2022-07-31T14:48:24;7.93;;;4.00;;
26042;SDS011;13818;52.156;5.382;2022-07-31T14:50:51;6.97;;;3.50;;
26042;SDS011;13818;52.156;5.382;2022-07-31T14:53:17;8.63;;;3.53;;